Time;durP1;ratioP1;P1;durP2;ratioP2;P2;SDS_P1;SDS_P2;PMS_P1;PMS_P2;Temp;Humidity;BMP_temperature;BMP_pressure;BME280_temperature;BME280_humidity;BME280_pressure;Samples;Min_cycle;Max_cycle;Signal;HPM_P1;HPM_P2
2024/02/12 00:00:21;;;;;;;2.90;1.30;;;;;;;;;;605579;23;1156;-77
2024/02/12 00:00:36;;;;;;;2.60;1.23;;;;;;;;;;605796;23;887;-78
2024/02/12 00:00:54;;;;;;;2.30;1.20;;;;;;;;;;605267;23;953;-78
2024/02/12 00:01:10;;;;;;;2.72;1.30;;;;;;;;;;605702;23;919;-78
2024/02/12 00:01:29;;;;;;;3.30;1.48;;;;;;;;;;605882;23;859;-78
2024/02/12 00:01:45;;;;;;;3.20;1.50;;;;;;;;;;605503;23;954;-78
2024/02/12 00:02:03;;;;;;;2.90;1.40;;;;;;;;;;605324;23;1428;-78
2024/02/12 00:02:18;;;;;;;2.58;1.50;;;;;;;;;;608770;23;1133;-78
2024/02/12 00:02:34;;;;;;;2.95;1.50;;;;;;;;;;607658;23;1197;-78
2024/02/12 00:02:49;;;;;;;3.13;1.30;;;;;;;;;;608257;23;883;-78
2024/02/12 00:03:06;;;;;;;3.45;1.30;;;;;;;;;;608056;23;889;-78
2024/02/12 00:03:22;;;;;;;3.88;1.45;;;;;;;;;;608315;23;1139;-78
2024/02/12 00:03:40;;;;;;;2.70;1.13;;;;;;;;;;607994;23;1436;-78
2024/02/12 00:03:56;;;;;;;2.70;1.00;;;;;;;;;;608109;23;1060;-78
2024/02/12 00:04:12;;;;;;;2.63;1.00;;;;;;;;;;604971;23;1327;-78
2024/02/12 00:04:29;;;;;;;1.58;0.82;;;;;;;;;;600695;23;1294;-78
2024/02/12 00:04:51;;;;;;;1.95;0.80;;;;;;;;;;596630;23;1345;-77
2024/02/12 00:05:07;;;;;;;3.47;1.10;;;;;;;;;;596818;23;1119;-78
2024/02/12 00:05:23;;;;;;;3.17;1.05;;;;;;;;;;595991;23;1937;-78
2024/02/12 00:05:38;;;;;;;1.95;1.00;;;;;;;;;;596662;23;1248;-78
2024/02/12 00:05:55;;;;;;;1.63;0.93;;;;;;;;;;595028;23;1175;-77
2024/02/12 00:06:10;;;;;;;1.67;0.82;;;;;;;;;;598682;23;1034;-78
2024/02/12 00:06:26;;;;;;;2.20;0.90;;;;;;;;;;601476;23;1070;-78
2024/02/12 00:06:42;;;;;;;2.80;0.90;;;;;;;;;;604765;23;946;-79
2024/02/12 00:06:58;;;;;;;2.50;0.85;;;;;;;;;;605694;23;933;-78
2024/02/12 00:07:16;;;;;;;1.70;0.90;;;;;;;;;;601343;23;1035;-77
2024/02/12 00:07:32;;;;;;;1.85;0.80;;;;;;;;;;601387;23;1130;-78
2024/02/12 00:07:48;;;;;;;1.98;0.80;;;;;;;;;;605008;23;891;-78
2024/02/12 00:08:07;;;;;;;2.28;0.85;;;;;;;;;;604654;23;1227;-78
2024/02/12 00:08:23;;;;;;;2.22;0.90;;;;;;;;;;605464;23;860;-78
2024/02/12 00:08:38;;;;;;;2.30;1.00;;;;;;;;;;605433;23;789;-78
2024/02/12 00:08:54;;;;;;;2.50;1.00;;;;;;;;;;604624;23;1195;-78
2024/02/12 00:09:09;;;;;;;2.33;0.90;;;;;;;;;;606956;23;903;-78
2024/02/12 00:09:25;;;;;;;1.77;0.82;;;;;;;;;;608882;23;796;-78
2024/02/12 00:09:40;;;;;;;2.22;1.00;;;;;;;;;;608438;23;920;-77
2024/02/12 00:09:56;;;;;;;2.77;1.03;;;;;;;;;;607532;23;971;-78
2024/02/12 00:10:12;;;;;;;2.20;1.07;;;;;;;;;;608456;23;859;-77
2024/02/12 00:10:27;;;;;;;2.45;1.00;;;;;;;;;;608065;23;1135;-77
2024/02/12 00:10:43;;;;;;;3.17;1.00;;;;;;;;;;608489;23;1303;-77
2024/02/12 00:10:59;;;;;;;2.63;0.90;;;;;;;;;;608013;23;989;-77
2024/02/12 00:11:14;;;;;;;2.50;0.80;;;;;;;;;;608144;23;951;-78
2024/02/12 00:11:30;;;;;;;2.20;0.82;;;;;;;;;;604905;23;1177;-77
2024/02/12 00:11:46;;;;;;;1.73;0.70;;;;;;;;;;605331;23;1084;-78
2024/02/12 00:12:01;;;;;;;2.63;0.80;;;;;;;;;;602107;23;1164;-78
2024/02/12 00:12:17;;;;;;;2.90;0.95;;;;;;;;;;603014;23;1100;-78
2024/02/12 00:12:32;;;;;;;2.03;0.97;;;;;;;;;;603084;23;848;-78
2024/02/12 00:12:51;;;;;;;2.10;1.00;;;;;;;;;;602609;23;1108;-77
2024/02/12 00:13:07;;;;;;;1.70;0.82;;;;;;;;;;603112;23;895;-78
2024/02/12 00:13:23;;;;;;;1.80;0.80;;;;;;;;;;604070;23;1275;-78
2024/02/12 00:13:39;;;;;;;1.60;0.80;;;;;;;;;;605551;23;1092;-78
2024/02/12 00:13:56;;;;;;;2.00;0.90;;;;;;;;;;603698;23;1239;-78
2024/02/12 00:14:11;;;;;;;2.47;0.90;;;;;;;;;;606307;23;915;-78
2024/02/12 00:14:27;;;;;;;1.67;0.70;;;;;;;;;;605606;23;922;-78
2024/02/12 00:14:44;;;;;;;1.70;0.75;;;;;;;;;;602485;23;1064;-78
2024/02/12 00:15:00;;;;;;;1.77;0.80;;;;;;;;;;601976;23;1448;-78
2024/02/12 00:15:17;;;;;;;1.50;0.70;;;;;;;;;;602770;23;862;-79
2024/02/12 00:15:32;;;;;;;1.65;0.80;;;;;;;;;;602345;23;911;-78
2024/02/12 00:15:47;;;;;;;2.33;0.75;;;;;;;;;;603393;23;1233;-78
2024/02/12 00:16:05;;;;;;;2.60;0.80;;;;;;;;;;605146;23;1149;-78
2024/02/12 00:16:21;;;;;;;2.55;0.98;;;;;;;;;;605313;23;1467;-78
2024/02/12 00:16:40;;;;;;;2.63;1.10;;;;;;;;;;605127;23;855;-78
2024/02/12 00:16:55;;;;;;;2.85;1.10;;;;;;;;;;605602;23;933;-78
2024/02/12 00:17:13;;;;;;;2.07;1.00;;;;;;;;;;605572;23;832;-78
2024/02/12 00:17:28;;;;;;;1.88;1.00;;;;;;;;;;605037;23;836;-78
2024/02/12 00:17:44;;;;;;;1.88;0.90;;;;;;;;;;606007;23;796;-78
2024/02/12 00:17:59;;;;;;;2.97;0.90;;;;;;;;;;604380;23;1300;-78
2024/02/12 00:18:15;;;;;;;2.97;0.93;;;;;;;;;;605213;23;987;-78
2024/02/12 00:18:31;;;;;;;2.20;1.00;;;;;;;;;;605300;23;1318;-78
2024/02/12 00:18:46;;;;;;;1.90;0.93;;;;;;;;;;602430;23;1056;-78
2024/02/12 00:19:02;;;;;;;1.50;0.80;;;;;;;;;;601654;23;1011;-78
2024/02/12 00:19:17;;;;;;;1.50;0.85;;;;;;;;;;602644;23;1192;-78
2024/02/12 00:19:35;;;;;;;1.63;0.80;;;;;;;;;;602832;23;918;-78
2024/02/12 00:19:50;;;;;;;2.38;0.93;;;;;;;;;;602312;23;1362;-78
2024/02/12 00:20:10;;;;;;;2.37;0.90;;;;;;;;;;602769;23;816;-78
2024/02/12 00:20:29;;;;;;;1.80;0.90;;;;;;;;;;601636;23;907;-78
2024/02/12 00:20:44;;;;;;;2.05;1.00;;;;;;;;;;602311;23;1030;-78
2024/02/12 00:20:59;;;;;;;2.07;1.00;;;;;;;;;;602696;23;1076;-78
2024/02/12 00:21:18;;;;;;;2.40;0.90;;;;;;;;;;602148;23;1179;-78
2024/02/12 00:21:33;;;;;;;2.30;0.80;;;;;;;;;;599552;23;1174;-78
2024/02/12 00:21:49;;;;;;;1.27;0.80;;;;;;;;;;599915;23;1073;-78
2024/02/12 00:22:04;;;;;;;1.48;0.80;;;;;;;;;;599454;23;1032;-78
2024/02/12 00:22:20;;;;;;;2.00;0.90;;;;;;;;;;599988;23;911;-78
2024/02/12 00:22:36;;;;;;;2.20;0.93;;;;;;;;;;600116;23;849;-78
2024/02/12 00:22:52;;;;;;;2.15;0.80;;;;;;;;;;596908;23;1332;-78
2024/02/12 00:23:07;;;;;;;2.22;0.85;;;;;;;;;;598170;23;923;-78
2024/02/12 00:23:23;;;;;;;2.30;1.00;;;;;;;;;;600373;23;1058;-78
2024/02/12 00:23:38;;;;;;;1.73;0.93;;;;;;;;;;603362;23;926;-78
2024/02/12 00:23:55;;;;;;;1.85;1.05;;;;;;;;;;605581;23;856;-78
2024/02/12 00:24:11;;;;;;;3.03;1.27;;;;;;;;;;602578;23;1186;-78
2024/02/12 00:24:28;;;;;;;3.25;1.20;;;;;;;;;;601586;23;1307;-78
2024/02/12 00:24:43;;;;;;;2.40;1.20;;;;;;;;;;603820;23;1152;-79
2024/02/12 00:25:00;;;;;;;1.67;1.07;;;;;;;;;;605293;23;1221;-78
2024/02/12 00:25:16;;;;;;;1.42;0.90;;;;;;;;;;602947;23;1925;-78
2024/02/12 00:25:33;;;;;;;2.42;0.98;;;;;;;;;;599551;23;1302;-78
2024/02/12 00:25:48;;;;;;;2.22;0.90;;;;;;;;;;602842;23;896;-78
2024/02/12 00:26:05;;;;;;;1.83;0.93;;;;;;;;;;602768;23;840;-77
2024/02/12 00:26:25;;;;;;;2.00;0.93;;;;;;;;;;602520;23;1022;-78
2024/02/12 00:26:41;;;;;;;1.50;0.80;;;;;;;;;;597483;23;1350;-78
2024/02/12 00:27:00;;;;;;;2.42;0.80;;;;;;;;;;601766;23;1177;-78
2024/02/12 00:27:16;;;;;;;2.05;0.80;;;;;;;;;;605601;23;860;-78
2024/02/12 00:27:31;;;;;;;2.23;0.90;;;;;;;;;;608389;23;1064;-78
2024/02/12 00:27:48;;;;;;;2.70;0.98;;;;;;;;;;608550;23;1116;-78
2024/02/12 00:28:03;;;;;;;3.17;0.98;;;;;;;;;;608638;23;1000;-78
2024/02/12 00:28:19;;;;;;;2.58;0.90;;;;;;;;;;608532;23;901;-78
2024/02/12 00:28:34;;;;;;;1.73;0.83;;;;;;;;;;608344;23;915;-78
2024/02/12 00:28:50;;;;;;;1.73;0.90;;;;;;;;;;608173;23;1153;-78
2024/02/12 00:29:08;;;;;;;2.83;0.90;;;;;;;;;;608728;23;906;-78
2024/02/12 00:29:23;;;;;;;2.78;0.80;;;;;;;;;;605409;23;1133;-78
2024/02/12 00:29:39;;;;;;;2.13;0.77;;;;;;;;;;606115;23;825;-79
2024/02/12 00:29:56;;;;;;;1.45;0.80;;;;;;;;;;605705;23;1321;-78
2024/02/12 00:30:14;;;;;;;2.13;0.90;;;;;;;;;;605648;23;1116;-78
2024/02/12 00:30:32;;;;;;;2.17;0.85;;;;;;;;;;605500;23;1053;-78
2024/02/12 00:30:48;;;;;;;1.83;0.80;;;;;;;;;;606033;23;852;-78
2024/02/12 00:31:06;;;;;;;2.10;0.87;;;;;;;;;;605701;23;1186;-78
2024/02/12 00:31:23;;;;;;;3.40;0.80;;;;;;;;;;608108;23;1342;-78
2024/02/12 00:31:39;;;;;;;3.30;0.80;;;;;;;;;;605641;23;1097;-78
2024/02/12 00:31:58;;;;;;;1.30;0.80;;;;;;;;;;599588;23;1459;-78
2024/02/12 00:32:13;;;;;;;1.55;0.90;;;;;;;;;;599701;23;1295;-78
2024/02/12 00:32:29;;;;;;;1.55;0.90;;;;;;;;;;602741;23;1173;-78
2024/02/12 00:32:44;;;;;;;1.63;0.90;;;;;;;;;;599571;23;1112;-78
2024/02/12 00:33:04;;;;;;;2.17;1.00;;;;;;;;;;599500;23;967;-78
2024/02/12 00:33:19;;;;;;;1.77;0.93;;;;;;;;;;597180;23;1070;-78
2024/02/12 00:33:36;;;;;;;1.35;0.80;;;;;;;;;;599983;23;832;-78
2024/02/12 00:33:51;;;;;;;1.83;0.80;;;;;;;;;;600138;23;916;-78
2024/02/12 00:34:07;;;;;;;2.40;1.00;;;;;;;;;;599432;23;1104;-78
2024/02/12 00:34:23;;;;;;;2.27;0.93;;;;;;;;;;601256;23;861;-78
2024/02/12 00:34:38;;;;;;;1.95;0.90;;;;;;;;;;603857;23;1160;-79
2024/02/12 00:34:57;;;;;;;2.47;1.10;;;;;;;;;;605437;23;1031;-78
2024/02/12 00:35:15;;;;;;;2.05;1.00;;;;;;;;;;606207;23;1264;-78
2024/02/12 00:35:31;;;;;;;2.30;0.93;;;;;;;;;;608335;23;925;-79
2024/02/12 00:35:47;;;;;;;2.25;0.90;;;;;;;;;;608567;23;1306;-78
2024/02/12 00:36:03;;;;;;;1.53;0.73;;;;;;;;;;607865;23;1172;-78
2024/02/12 00:36:19;;;;;;;1.60;0.77;;;;;;;;;;608490;23;875;-78
2024/02/12 00:36:36;;;;;;;1.70;0.70;;;;;;;;;;605976;23;1395;-78
2024/02/12 00:36:52;;;;;;;1.67;0.70;;;;;;;;;;602429;23;1216;-78
2024/02/12 00:37:08;;;;;;;1.58;0.80;;;;;;;;;;604515;23;963;-78
2024/02/12 00:37:26;;;;;;;1.60;0.80;;;;;;;;;;605030;23;1164;-78
2024/02/12 00:37:42;;;;;;;1.50;0.80;;;;;;;;;;604448;23;974;-78
2024/02/12 00:37:58;;;;;;;1.80;0.80;;;;;;;;;;604591;23;1081;-78
2024/02/12 00:38:14;;;;;;;2.35;0.85;;;;;;;;;;605047;23;1075;-78
2024/02/12 00:38:30;;;;;;;2.30;0.80;;;;;;;;;;605324;23;1278;-78
2024/02/12 00:38:46;;;;;;;2.20;0.82;;;;;;;;;;608501;23;1343;-78
2024/02/12 00:39:04;;;;;;;2.13;0.93;;;;;;;;;;608004;23;1376;-78
2024/02/12 00:39:20;;;;;;;2.15;0.93;;;;;;;;;;608055;23;1307;-78
2024/02/12 00:39:37;;;;;;;2.15;0.90;;;;;;;;;;608308;23;994;-78
2024/02/12 00:39:53;;;;;;;1.75;0.82;;;;;;;;;;608765;23;1044;-78
2024/02/12 00:40:09;;;;;;;1.37;0.80;;;;;;;;;;608723;23;900;-78
2024/02/12 00:40:25;;;;;;;1.65;0.80;;;;;;;;;;606545;23;869;-78
2024/02/12 00:40:40;;;;;;;1.67;0.87;;;;;;;;;;606174;23;903;-79
2024/02/12 00:40:56;;;;;;;1.83;0.80;;;;;;;;;;607254;23;1131;-79
2024/02/12 00:41:14;;;;;;;1.92;0.90;;;;;;;;;;606957;23;828;-78
2024/02/12 00:41:29;;;;;;;2.78;1.00;;;;;;;;;;608788;23;943;-79
2024/02/12 00:41:49;;;;;;;2.40;0.83;;;;;;;;;;608117;23;1178;-78
2024/02/12 00:42:12;;;;;;;1.25;0.70;;;;;;;;;;608744;23;985;-78
2024/02/12 00:42:27;;;;;;;1.80;0.80;;;;;;;;;;609123;23;907;-78
2024/02/12 00:42:44;;;;;;;2.10;0.87;;;;;;;;;;605251;23;1331;-78
2024/02/12 00:43:00;;;;;;;1.92;0.90;;;;;;;;;;605215;23;939;-78
2024/02/12 00:43:16;;;;;;;1.48;0.90;;;;;;;;;;602601;23;1212;-78
2024/02/12 00:43:32;;;;;;;1.88;0.90;;;;;;;;;;601999;23;1084;-78
2024/02/12 00:43:51;;;;;;;2.45;0.90;;;;;;;;;;602349;23;879;-78
2024/02/12 00:44:06;;;;;;;1.92;0.80;;;;;;;;;;599957;23;1248;-78
2024/02/12 00:44:22;;;;;;;1.50;0.70;;;;;;;;;;596828;23;1238;-78
2024/02/12 00:44:42;;;;;;;2.20;0.80;;;;;;;;;;595453;23;1337;-78
2024/02/12 00:44:58;;;;;;;2.33;0.88;;;;;;;;;;596751;23;1396;-78
2024/02/12 00:45:14;;;;;;;1.98;0.90;;;;;;;;;;598828;23;1917;-78
2024/02/12 00:45:31;;;;;;;1.80;0.88;;;;;;;;;;599669;23;1388;-78
2024/02/12 00:45:46;;;;;;;1.55;0.90;;;;;;;;;;599402;23;1076;-78
2024/02/12 00:46:01;;;;;;;1.60;0.90;;;;;;;;;;601258;23;844;-78
2024/02/12 00:46:18;;;;;;;1.67;0.80;;;;;;;;;;604136;23;1044;-78
2024/02/12 00:46:34;;;;;;;2.30;0.80;;;;;;;;;;605735;23;851;-78
2024/02/12 00:46:54;;;;;;;2.03;0.80;;;;;;;;;;605923;23;919;-78
2024/02/12 00:47:09;;;;;;;1.50;0.82;;;;;;;;;;605026;23;864;-78
2024/02/12 00:47:25;;;;;;;2.13;1.00;;;;;;;;;;606426;23;936;-78
2024/02/12 00:47:41;;;;;;;2.42;0.95;;;;;;;;;;605553;23;1255;-78
2024/02/12 00:47:56;;;;;;;1.90;1.00;;;;;;;;;;605220;23;1175;-78
2024/02/12 00:48:12;;;;;;;2.20;1.00;;;;;;;;;;604957;23;1233;-78
2024/02/12 00:48:29;;;;;;;1.98;0.80;;;;;;;;;;605563;23;1059;-78
2024/02/12 00:48:45;;;;;;;1.35;0.77;;;;;;;;;;605363;23;1008;-78
2024/02/12 00:49:01;;;;;;;1.30;0.80;;;;;;;;;;605642;23;1094;-78
2024/02/12 00:49:20;;;;;;;1.45;0.75;;;;;;;;;;605820;23;1362;-78
2024/02/12 00:49:35;;;;;;;1.65;0.75;;;;;;;;;;607265;23;1225;-78
2024/02/12 00:49:51;;;;;;;2.47;0.90;;;;;;;;;;606240;23;1073;-78
2024/02/12 00:50:08;;;;;;;2.20;0.83;;;;;;;;;;605263;23;1125;-78
2024/02/12 00:50:23;;;;;;;1.73;0.77;;;;;;;;;;605645;23;1052;-78
2024/02/12 00:50:40;;;;;;;2.28;0.80;;;;;;;;;;603110;23;887;-78
2024/02/12 00:50:55;;;;;;;2.33;0.97;;;;;;;;;;602401;23;984;-78
2024/02/12 00:51:12;;;;;;;1.93;0.90;;;;;;;;;;604269;23;1075;-79
2024/02/12 00:51:27;;;;;;;1.60;0.77;;;;;;;;;;601642;23;1380;-78
2024/02/12 00:51:45;;;;;;;1.60;0.80;;;;;;;;;;601808;23;1290;-78
2024/02/12 00:52:03;;;;;;;1.63;0.80;;;;;;;;;;602390;23;1033;-78
2024/02/12 00:52:18;;;;;;;1.10;0.75;;;;;;;;;;599548;23;1041;-78
2024/02/12 00:52:37;;;;;;;1.33;0.80;;;;;;;;;;601676;23;1130;-77
2024/02/12 00:52:53;;;;;;;1.55;0.85;;;;;;;;;;602454;23;1007;-78
2024/02/12 00:53:09;;;;;;;1.33;0.80;;;;;;;;;;604810;23;1221;-78
2024/02/12 00:53:25;;;;;;;1.70;0.75;;;;;;;;;;605375;23;857;-78
2024/02/12 00:53:41;;;;;;;2.20;0.90;;;;;;;;;;605463;23;820;-78
2024/02/12 00:53:57;;;;;;;2.13;0.90;;;;;;;;;;605573;23;887;-78
2024/02/12 00:54:14;;;;;;;3.00;0.90;;;;;;;;;;604017;23;1162;-78
2024/02/12 00:54:30;;;;;;;2.53;0.90;;;;;;;;;;602542;23;1248;-78
2024/02/12 00:54:45;;;;;;;1.40;0.70;;;;;;;;;;601880;23;852;-78
2024/02/12 00:55:02;;;;;;;1.67;0.70;;;;;;;;;;602459;23;984;-78
2024/02/12 00:55:18;;;;;;;2.60;0.70;;;;;;;;;;602626;23;1326;-78
2024/02/12 00:55:34;;;;;;;2.47;0.77;;;;;;;;;;602047;23;1201;-78
2024/02/12 00:55:49;;;;;;;2.22;0.80;;;;;;;;;;602587;23;973;-78
2024/02/12 00:56:06;;;;;;;2.60;0.85;;;;;;;;;;602349;23;1048;-78
2024/02/12 00:56:24;;;;;;;2.53;0.80;;;;;;;;;;600787;23;1379;-79
2024/02/12 00:56:44;;;;;;;1.85;0.93;;;;;;;;;;602561;23;1347;-79
2024/02/12 00:57:00;;;;;;;1.80;0.98;;;;;;;;;;602301;23;1058;-78
2024/02/12 00:57:15;;;;;;;2.20;1.00;;;;;;;;;;602324;23;1245;-78
2024/02/12 00:57:33;;;;;;;1.83;0.95;;;;;;;;;;603147;23;928;-79
2024/02/12 00:57:48;;;;;;;1.90;1.00;;;;;;;;;;603156;23;860;-78
2024/02/12 00:58:04;;;;;;;2.35;0.93;;;;;;;;;;602172;23;1040;-79
2024/02/12 00:58:19;;;;;;;2.60;0.90;;;;;;;;;;604662;23;1156;-79
2024/02/12 00:58:35;;;;;;;2.83;0.90;;;;;;;;;;605076;23;1112;-79
2024/02/12 00:58:50;;;;;;;2.67;1.00;;;;;;;;;;601957;23;1087;-79
2024/02/12 00:59:06;;;;;;;1.65;0.95;;;;;;;;;;603168;23;1100;-79
2024/02/12 00:59:23;;;;;;;2.63;0.93;;;;;;;;;;605684;23;892;-79
2024/02/12 00:59:40;;;;;;;3.15;1.00;;;;;;;;;;602628;23;1438;-78
2024/02/12 00:59:57;;;;;;;1.98;0.90;;;;;;;;;;602592;23;1145;-79
2024/02/12 01:00:14;;;;;;;1.80;0.90;;;;;;;;;;599331;23;1359;-78
2024/02/12 01:00:30;;;;;;;1.75;0.90;;;;;;;;;;599331;23;1214;-78
2024/02/12 01:00:45;;;;;;;1.35;0.80;;;;;;;;;;601417;23;909;-78
2024/02/12 01:01:03;;;;;;;2.20;0.90;;;;;;;;;;599091;23;1058;-78
2024/02/12 01:01:19;;;;;;;2.92;1.00;;;;;;;;;;599589;23;1321;-78
2024/02/12 01:01:34;;;;;;;2.10;0.90;;;;;;;;;;598860;23;1060;-79
2024/02/12 01:01:50;;;;;;;1.88;0.93;;;;;;;;;;602117;23;1056;-78
2024/02/12 01:02:06;;;;;;;1.77;0.90;;;;;;;;;;599454;23;1185;-78
2024/02/12 01:02:22;;;;;;;2.30;1.20;;;;;;;;;;603129;23;1220;-78
2024/02/12 01:02:40;;;;;;;2.15;1.17;;;;;;;;;;599553;23;1335;-78
2024/02/12 01:02:55;;;;;;;1.70;1.00;;;;;;;;;;599859;23;947;-79
2024/02/12 01:03:11;;;;;;;1.83;1.00;;;;;;;;;;599750;23;941;-79
2024/02/12 01:03:28;;;;;;;2.70;1.07;;;;;;;;;;600500;23;872;-78
2024/02/12 01:03:44;;;;;;;2.55;1.02;;;;;;;;;;598173;23;1125;-78
2024/02/12 01:03:59;;;;;;;1.95;0.98;;;;;;;;;;598187;23;888;-79
2024/02/12 01:04:16;;;;;;;1.80;0.90;;;;;;;;;;601506;23;945;-78
2024/02/12 01:04:31;;;;;;;2.53;1.00;;;;;;;;;;603923;23;1048;-78
2024/02/12 01:04:47;;;;;;;2.10;0.90;;;;;;;;;;606174;23;910;-78
2024/02/12 01:05:03;;;;;;;1.48;0.80;;;;;;;;;;602704;23;1038;-78
2024/02/12 01:05:19;;;;;;;2.40;1.00;;;;;;;;;;601305;23;1917;-78
2024/02/12 01:05:34;;;;;;;2.20;1.00;;;;;;;;;;602627;23;994;-78
2024/02/12 01:05:50;;;;;;;2.25;0.93;;;;;;;;;;601964;23;1218;-78
2024/02/12 01:06:06;;;;;;;2.47;1.00;;;;;;;;;;601900;23;1011;-79
2024/02/12 01:06:24;;;;;;;1.88;0.93;;;;;;;;;;602637;23;1498;-78
2024/02/12 01:06:40;;;;;;;2.40;1.00;;;;;;;;;;602723;23;903;-79
2024/02/12 01:06:59;;;;;;;2.80;1.00;;;;;;;;;;602937;23;1252;-78
2024/02/12 01:07:17;;;;;;;1.73;0.80;;;;;;;;;;605711;23;1310;-79
2024/02/12 01:07:32;;;;;;;1.35;0.80;;;;;;;;;;605628;23;1372;-78
2024/02/12 01:07:49;;;;;;;1.80;0.82;;;;;;;;;;607702;23;966;-79
2024/02/12 01:08:06;;;;;;;2.53;0.90;;;;;;;;;;608437;23;1196;-78
2024/02/12 01:08:21;;;;;;;2.67;0.98;;;;;;;;;;608579;23;883;-78
2024/02/12 01:08:39;;;;;;;2.28;0.93;;;;;;;;;;608125;23;804;-79
2024/02/12 01:08:55;;;;;;;1.45;0.90;;;;;;;;;;608796;23;1043;-79
2024/02/12 01:09:14;;;;;;;2.65;1.00;;;;;;;;;;603486;23;1322;-79
2024/02/12 01:09:31;;;;;;;2.55;0.90;;;;;;;;;;600170;23;1092;-78
2024/02/12 01:09:47;;;;;;;1.30;0.80;;;;;;;;;;599592;23;919;-78
2024/02/12 01:10:04;;;;;;;1.75;0.82;;;;;;;;;;601943;23;1146;-79
2024/02/12 01:10:20;;;;;;;3.05;0.98;;;;;;;;;;602802;23;904;-78
2024/02/12 01:10:35;;;;;;;2.60;0.90;;;;;;;;;;602344;23;1022;-78
2024/02/12 01:10:51;;;;;;;1.67;0.80;;;;;;;;;;603934;23;1068;-78
2024/02/12 01:11:06;;;;;;;1.60;0.90;;;;;;;;;;603617;23;1291;-78
2024/02/12 01:11:22;;;;;;;1.90;1.00;;;;;;;;;;605084;23;942;-78
2024/02/12 01:11:39;;;;;;;1.85;1.00;;;;;;;;;;605293;23;1008;-79
2024/02/12 01:11:55;;;;;;;2.85;1.10;;;;;;;;;;602352;23;1043;-78
2024/02/12 01:12:11;;;;;;;3.03;1.08;;;;;;;;;;602832;23;1128;-78
2024/02/12 01:12:27;;;;;;;1.85;0.80;;;;;;;;;;602858;23;920;-78
2024/02/12 01:12:44;;;;;;;1.70;0.80;;;;;;;;;;602413;23;1151;-79
2024/02/12 01:13:00;;;;;;;1.80;0.80;;;;;;;;;;602535;23;848;-78
2024/02/12 01:13:16;;;;;;;1.95;0.80;;;;;;;;;;602767;23;969;-78
2024/02/12 01:13:33;;;;;;;1.67;0.80;;;;;;;;;;601938;23;1012;-77
2024/02/12 01:13:49;;;;;;;1.55;0.80;;;;;;;;;;603465;23;1374;-78
2024/02/12 01:14:06;;;;;;;1.38;0.80;;;;;;;;;;605269;23;991;-78
2024/02/12 01:14:23;;;;;;;1.75;0.80;;;;;;;;;;602591;23;1206;-78
2024/02/12 01:14:39;;;;;;;2.00;0.80;;;;;;;;;;602756;23;1252;-78
2024/02/12 01:14:54;;;;;;;1.87;0.80;;;;;;;;;;602421;23;1055;-78
2024/02/12 01:15:10;;;;;;;1.92;0.80;;;;;;;;;;602259;23;870;-78
2024/02/12 01:15:25;;;;;;;1.38;0.68;;;;;;;;;;599570;23;1282;-78
2024/02/12 01:15:41;;;;;;;1.07;0.60;;;;;;;;;;598354;23;1061;-78
2024/02/12 01:15:56;;;;;;;1.20;0.73;;;;;;;;;;596121;23;1119;-78
2024/02/12 01:16:12;;;;;;;1.80;0.80;;;;;;;;;;596975;23;988;-78
2024/02/12 01:16:30;;;;;;;2.05;0.90;;;;;;;;;;599650;23;1218;-78
2024/02/12 01:16:46;;;;;;;1.80;0.90;;;;;;;;;;602409;23;820;-78
2024/02/12 01:17:01;;;;;;;1.65;0.90;;;;;;;;;;599130;23;1038;-78
2024/02/12 01:17:16;;;;;;;2.27;0.93;;;;;;;;;;600270;23;1032;-78
2024/02/12 01:17:32;;;;;;;2.33;0.90;;;;;;;;;;603548;23;1179;-78
2024/02/12 01:17:47;;;;;;;1.58;0.80;;;;;;;;;;605698;23;1200;-78
2024/02/12 01:18:05;;;;;;;1.90;0.90;;;;;;;;;;605311;23;1028;-78
2024/02/12 01:18:20;;;;;;;1.83;0.82;;;;;;;;;;605628;23;883;-78
2024/02/12 01:18:36;;;;;;;2.73;0.90;;;;;;;;;;604934;23;1162;-78
2024/02/12 01:18:53;;;;;;;2.55;0.82;;;;;;;;;;604943;23;1142;-78
2024/02/12 01:19:09;;;;;;;1.67;0.80;;;;;;;;;;602528;23;1358;-82
2024/02/12 01:19:25;;;;;;;2.65;0.90;;;;;;;;;;605310;23;1224;-78
2024/02/12 01:19:41;;;;;;;2.03;0.82;;;;;;;;;;605760;23;951;-78
2024/02/12 01:19:57;;;;;;;1.50;0.75;;;;;;;;;;605473;23;803;-78
2024/02/12 01:20:12;;;;;;;2.35;0.80;;;;;;;;;;602726;23;1180;-78
2024/02/12 01:20:28;;;;;;;2.53;0.80;;;;;;;;;;601921;23;1204;-78
2024/02/12 01:20:45;;;;;;;1.77;0.70;;;;;;;;;;603269;23;939;-78
2024/02/12 01:21:00;;;;;;;1.52;0.70;;;;;;;;;;600244;23;1050;-78
2024/02/12 01:21:17;;;;;;;1.60;0.90;;;;;;;;;;601294;23;1195;-78
2024/02/12 01:21:33;;;;;;;1.90;0.85;;;;;;;;;;599364;23;960;-78
2024/02/12 01:21:49;;;;;;;2.10;0.75;;;;;;;;;;596590;23;1244;-78
2024/02/12 01:22:05;;;;;;;1.75;0.70;;;;;;;;;;598101;23;1241;-78
2024/02/12 01:22:21;;;;;;;2.15;0.70;;;;;;;;;;600567;23;886;-78
2024/02/12 01:22:38;;;;;;;2.83;0.80;;;;;;;;;;603170;23;864;-78
2024/02/12 01:22:55;;;;;;;2.50;0.80;;;;;;;;;;602253;23;1371;-78
2024/02/12 01:23:12;;;;;;;1.90;0.90;;;;;;;;;;602535;23;1202;-78
2024/02/12 01:23:30;;;;;;;2.00;0.90;;;;;;;;;;602504;23;866;-78
2024/02/12 01:23:46;;;;;;;1.25;0.70;;;;;;;;;;605285;23;932;-78
2024/02/12 01:24:01;;;;;;;1.42;0.65;;;;;;;;;;607726;23;959;-82
2024/02/12 01:24:17;;;;;;;2.27;0.80;;;;;;;;;;608440;23;1321;-78
2024/02/12 01:24:32;;;;;;;2.05;0.88;;;;;;;;;;608428;23;985;-78
2024/02/12 01:24:50;;;;;;;1.40;0.70;;;;;;;;;;608402;23;1154;-78
2024/02/12 01:25:05;;;;;;;1.40;0.68;;;;;;;;;;608213;23;987;-78
2024/02/12 01:25:21;;;;;;;1.23;0.70;;;;;;;;;;609044;23;1925;-78
2024/02/12 01:25:38;;;;;;;0.90;0.60;;;;;;;;;;605383;23;1355;-78
2024/02/12 01:25:55;;;;;;;1.13;0.70;;;;;;;;;;605654;23;868;-78
2024/02/12 01:26:15;;;;;;;1.52;0.80;;;;;;;;;;605674;23;845;-78
2024/02/12 01:26:37;;;;;;;1.30;0.70;;;;;;;;;;602474;23;1160;-78
2024/02/12 01:26:52;;;;;;;1.75;0.70;;;;;;;;;;602644;23;874;-78
2024/02/12 01:27:08;;;;;;;1.63;0.70;;;;;;;;;;602534;23;1642;-78
2024/02/12 01:27:25;;;;;;;1.40;0.70;;;;;;;;;;602478;23;884;-77
2024/02/12 01:27:42;;;;;;;1.45;0.70;;;;;;;;;;605444;23;903;-78
2024/02/12 01:28:00;;;;;;;1.55;0.70;;;;;;;;;;605013;23;1240;-78
2024/02/12 01:28:15;;;;;;;2.03;0.70;;;;;;;;;;605851;23;891;-78
2024/02/12 01:28:32;;;;;;;1.95;0.70;;;;;;;;;;608174;23;990;-78
2024/02/12 01:28:47;;;;;;;1.70;0.80;;;;;;;;;;604911;23;1074;-78
2024/02/12 01:29:04;;;;;;;1.67;0.70;;;;;;;;;;603662;23;867;-78
2024/02/12 01:29:23;;;;;;;2.10;0.80;;;;;;;;;;602373;23;833;-78
2024/02/12 01:29:42;;;;;;;1.63;0.73;;;;;;;;;;602824;23;887;-77
2024/02/12 01:29:57;;;;;;;0.88;0.70;;;;;;;;;;602304;23;1217;-78
2024/02/12 01:30:14;;;;;;;1.33;0.80;;;;;;;;;;602207;23;1072;-78
2024/02/12 01:30:30;;;;;;;1.30;0.70;;;;;;;;;;602658;23;1233;-78
2024/02/12 01:30:47;;;;;;;1.63;0.80;;;;;;;;;;604271;23;936;-78
2024/02/12 01:31:03;;;;;;;2.50;0.90;;;;;;;;;;605812;23;1123;-78
2024/02/12 01:31:19;;;;;;;2.47;0.90;;;;;;;;;;604926;23;1196;-78
2024/02/12 01:31:37;;;;;;;2.25;1.00;;;;;;;;;;606990;23;1073;-78
2024/02/12 01:31:52;;;;;;;2.53;1.00;;;;;;;;;;607615;23;887;-79
2024/02/12 01:32:09;;;;;;;2.28;0.82;;;;;;;;;;608114;23;1123;-78
2024/02/12 01:32:25;;;;;;;2.28;0.80;;;;;;;;;;608853;23;899;-78
2024/02/12 01:32:41;;;;;;;1.73;0.80;;;;;;;;;;608231;23;955;-78
2024/02/12 01:32:56;;;;;;;2.43;0.80;;;;;;;;;;607737;23;1171;-79
2024/02/12 01:33:14;;;;;;;2.40;0.70;;;;;;;;;;607953;23;1213;-78
2024/02/12 01:33:31;;;;;;;1.15;0.57;;;;;;;;;;608762;23;843;-78
2024/02/12 01:33:47;;;;;;;1.38;0.75;;;;;;;;;;609104;23;1087;-78
2024/02/12 01:34:06;;;;;;;1.30;0.70;;;;;;;;;;605311;23;1304;-78
2024/02/12 01:34:21;;;;;;;1.25;0.73;;;;;;;;;;605862;23;879;-78
2024/02/12 01:34:37;;;;;;;1.23;0.73;;;;;;;;;;605608;23;1122;-77
2024/02/12 01:34:52;;;;;;;1.88;0.80;;;;;;;;;;602068;23;1093;-78
2024/02/12 01:35:08;;;;;;;1.60;0.70;;;;;;;;;;600646;23;1141;-78
2024/02/12 01:35:24;;;;;;;0.90;0.70;;;;;;;;;;597071;23;1151;-78
2024/02/12 01:35:39;;;;;;;1.35;0.77;;;;;;;;;;596592;23;942;-78
2024/02/12 01:35:55;;;;;;;1.77;0.70;;;;;;;;;;598997;23;1320;-78
2024/02/12 01:36:11;;;;;;;1.60;0.70;;;;;;;;;;601898;23;1039;-78
2024/02/12 01:36:28;;;;;;;1.60;0.75;;;;;;;;;;599537;23;1332;-77
2024/02/12 01:36:43;;;;;;;2.17;0.70;;;;;;;;;;600013;23;1013;-78
2024/02/12 01:36:59;;;;;;;2.00;0.70;;;;;;;;;;601988;23;1166;-78
2024/02/12 01:37:15;;;;;;;1.30;0.77;;;;;;;;;;602802;23;985;-78
2024/02/12 01:37:32;;;;;;;1.70;0.70;;;;;;;;;;605568;23;1202;-77
2024/02/12 01:37:48;;;;;;;1.95;0.88;;;;;;;;;;605508;23;921;-78
2024/02/12 01:38:08;;;;;;;1.67;0.90;;;;;;;;;;605285;23;1155;-77
2024/02/12 01:38:24;;;;;;;2.40;1.10;;;;;;;;;;607964;23;851;-78
2024/02/12 01:38:40;;;;;;;2.17;1.10;;;;;;;;;;606232;23;929;-77
2024/02/12 01:38:56;;;;;;;1.63;0.80;;;;;;;;;;605141;23;1329;-77
2024/02/12 01:39:12;;;;;;;1.67;0.80;;;;;;;;;;604555;23;1330;-77
2024/02/12 01:39:28;;;;;;;1.58;0.90;;;;;;;;;;605264;23;1002;-78
2024/02/12 01:39:44;;;;;;;1.52;0.80;;;;;;;;;;604191;23;1157;-77
2024/02/12 01:39:59;;;;;;;1.50;0.70;;;;;;;;;;605257;23;1034;-77
2024/02/12 01:40:15;;;;;;;1.43;0.73;;;;;;;;;;605709;23;1020;-77
2024/02/12 01:40:32;;;;;;;1.73;0.80;;;;;;;;;;606014;23;851;-78
2024/02/12 01:40:48;;;;;;;2.00;0.73;;;;;;;;;;604472;23;1065;-77
2024/02/12 01:41:04;;;;;;;1.60;0.80;;;;;;;;;;605848;23;1076;-78
2024/02/12 01:41:19;;;;;;;1.67;0.80;;;;;;;;;;607697;23;1306;-78
2024/02/12 01:41:36;;;;;;;1.60;0.80;;;;;;;;;;608538;23;893;-77
2024/02/12 01:41:52;;;;;;;1.88;0.77;;;;;;;;;;608411;23;1466;-77